Time;durP1;ratioP1;P1;durP2;ratioP2;P2;SDS_P1;SDS_P2;PMS_P1;PMS_P2;Temp;Humidity;BMP_temperature;BMP_pressure;BME280_temperature;BME280_humidity;BME280_pressure;Samples;Min_cycle;Max_cycle;Signal;HPM_P1;HPM_P2
2022/05/18 00:02:00;;;;;;;11.05;4.82;;;;;;;18.70;92.77;98259.31;5037965;28;20507;-80
2022/05/18 00:04:27;;;;;;;6.97;3.72;;;;;;;18.61;93.51;98264.09;5037012;28;20032;-79
2022/05/18 00:06:52;;;;;;;6.40;4.53;;;;;;;18.69;93.25;98261.28;5037798;28;20067;-80
2022/05/18 00:09:18;;;;;;;5.00;3.30;;;;;;;18.56;93.44;98256.00;5039992;28;20079;-81
2022/05/18 00:11:43;;;;;;;5.55;3.88;;;;;;;18.61;93.57;98261.34;5038718;28;20470;-80
2022/05/18 00:14:09;;;;;;;6.03;3.55;;;;;;;18.49;94.15;98258.47;5054354;28;20065;-82
2022/05/18 00:16:35;;;;;;;7.38;4.50;;;;;;;18.51;93.81;98261.78;5040893;28;20085;-81
2022/05/18 00:19:01;;;;;;;6.57;3.85;;;;;;;18.38;94.46;98251.75;5039396;28;20129;-82
2022/05/18 00:21:26;;;;;;;6.65;4.13;;;;;;;18.33;95.05;98261.06;5050640;28;20478;-80
2022/05/18 00:23:52;;;;;;;8.85;3.83;;;;;;;18.32;95.61;98255.88;5035402;28;20033;-80
2022/05/18 00:26:17;;;;;;;6.78;3.70;;;;;;;18.33;95.77;98255.53;5034133;28;20037;-80
2022/05/18 00:28:43;;;;;;;7.15;4.30;;;;;;;18.31;95.90;98273.63;5034709;28;20108;-79
2022/05/18 00:31:10;;;;;;;7.10;4.05;;;;;;;18.29;95.73;98273.97;5036344;28;20033;-80
2022/05/18 00:33:36;;;;;;;7.75;3.90;;;;;;;18.23;96.43;98277.28;5050166;28;20668;-78
2022/05/18 00:36:01;;;;;;;9.38;4.20;;;;;;;18.12;97.33;98260.25;5038384;28;20022;-80
2022/05/18 00:38:27;;;;;;;6.60;4.05;;;;;;;18.09;97.83;98267.28;5041721;28;20021;-81
2022/05/18 00:40:53;;;;;;;6.57;4.35;;;;;;;18.04;98.33;98278.53;5043366;28;20394;-81
2022/05/18 00:43:34;;;;;;;8.18;4.68;;;;;;;18.02;99.08;98289.16;5043594;28;20031;-82
2022/05/18 00:46:10;;;;;;;6.82;4.38;;;;;;;17.96;99.50;98271.13;5044923;28;20044;-81
2022/05/18 00:48:37;;;;;;;8.23;3.83;;;;;;;17.97;99.97;98280.22;5046084;28;20109;-80
2022/05/18 00:51:06;;;;;;;10.25;3.83;;;;;;;17.87;100.00;98264.81;5051406;28;20022;-81
2022/05/18 00:53:37;;;;;;;6.07;4.10;;;;;;;17.89;100.00;98286.63;5047044;28;20053;-80
2022/05/18 00:56:07;;;;;;;6.97;4.05;;;;;;;17.85;100.00;98282.91;5042763;28;20025;-83
2022/05/18 00:58:58;;;;;;;6.15;3.92;;;;;;;17.89;100.00;98308.75;5045086;28;20036;-81
2022/05/18 01:01:24;;;;;;;7.93;4.20;;;;;;;17.83;100.00;98297.06;5042228;28;20042;-80
2022/05/18 01:03:52;;;;;;;9.77;4.50;;;;;;;17.87;100.00;98302.75;5041923;28;20029;-82
2022/05/18 01:06:34;;;;;;;5.40;3.70;;;;;;;17.85;100.00;98297.56;5042003;28;20025;-81
2022/05/18 01:09:07;;;;;;;6.00;3.97;;;;;;;17.85;100.00;98313.34;5042358;28;20097;-81
2022/05/18 01:11:35;;;;;;;6.57;4.28;;;;;;;17.80;100.00;98302.47;5042303;28;20059;-81
2022/05/18 01:14:02;;;;;;;9.00;4.10;;;;;;;17.81;100.00;98307.69;5041269;28;20398;-80
2022/05/18 01:16:28;;;;;;;5.25;3.78;;;;;;;17.71;100.00;98308.03;5047709;28;20060;-81
2022/05/18 01:18:56;;;;;;;7.78;4.40;;;;;;;17.80;100.00;98311.59;5050105;28;20088;-81
2022/05/18 01:21:23;;;;;;;8.48;3.92;;;;;;;17.77;100.00;98316.97;5042919;28;20026;-79
2022/05/18 01:24:14;;;;;;;7.70;4.00;;;;;;;17.54;100.00;98288.75;5058537;28;20112;-82
2022/05/18 01:26:46;;;;;;;5.78;3.97;;;;;;;17.67;100.00;98310.66;5041349;28;20041;-80
2022/05/18 01:29:14;;;;;;;5.78;3.83;;;;;;;17.62;100.00;98310.03;5041903;28;20081;-81
2022/05/18 01:32:00;;;;;;;5.88;3.45;;;;;;;17.64;100.00;98318.81;5051887;28;20625;-82
2022/05/18 01:34:29;;;;;;;6.40;3.95;;;;;;;17.63;100.00;98325.50;5041287;28;20062;-80
2022/05/18 01:36:54;;;;;;;6.68;3.92;;;;;;;17.58;100.00;98328.44;5046586;28;20099;-81
2022/05/18 01:39:26;;;;;;;8.93;4.68;;;;;;;17.63;100.00;98314.44;5041864;28;20335;-81
2022/05/18 01:42:01;;;;;;;6.70;3.42;;;;;;;17.56;100.00;98311.38;5039907;28;20029;-81
2022/05/18 01:44:26;;;;;;;5.43;3.50;;;;;;;17.53;100.00;98312.00;5038746;28;20037;-79
2022/05/18 01:46:52;;;;;;;6.07;3.80;;;;;;;17.42;100.00;98296.91;5037635;28;20391;-80
2022/05/18 01:49:18;;;;;;;5.20;3.60;;;;;;;17.52;100.00;98321.44;5039686;28;20029;-80
2022/05/18 01:51:48;;;;;;;6.35;3.80;;;;;;;17.46;100.00;98331.06;5039302;28;20018;-83
2022/05/18 01:54:15;;;;;;;5.15;3.80;;;;;;;17.38;100.00;98323.63;5038493;28;20538;-81
2022/05/18 01:56:40;;;;;;;5.57;3.83;;;;;;;17.40;100.00;98326.88;5054338;28;20049;-82
2022/05/18 01:59:07;;;;;;;5.15;3.67;;;;;;;17.35;100.00;98324.28;5038330;28;20040;-81
2022/05/18 02:01:32;;;;;;;9.07;4.95;;;;;;;17.40;100.00;98337.94;5038230;28;20033;-80
2022/05/18 02:03:58;;;;;;;5.53;3.50;;;;;;;17.26;100.00;98320.75;5037285;28;20052;-78
2022/05/18 02:06:23;;;;;;;7.35;4.25;;;;;;;17.28;100.00;98333.09;5039922;28;20768;-80
2022/05/18 02:08:49;;;;;;;6.75;4.07;;;;;;;17.24;100.00;98339.59;5039382;28;20112;-81
2022/05/18 02:11:18;;;;;;;8.43;4.15;;;;;;;17.22;100.00;98351.00;5039461;28;20516;-82
2022/05/18 02:13:43;;;;;;;7.85;4.38;;;;;;;17.20;100.00;98344.19;5039916;28;20052;-79
2022/05/18 02:16:10;;;;;;;7.35;4.20;;;;;;;17.21;100.00;98363.19;5039726;28;20530;-81
2022/05/18 02:18:36;;;;;;;9.85;4.43;;;;;;;16.97;100.00;98325.03;5037223;28;20037;-79
2022/05/18 02:21:08;;;;;;;10.55;5.18;;;;;;;17.14;100.00;98360.91;5038723;28;20112;-80
2022/05/18 02:23:35;;;;;;;8.60;3.90;;;;;;;17.07;100.00;98359.81;5040267;28;20033;-79
2022/05/18 02:26:12;;;;;;;5.38;3.75;;;;;;;17.00;100.00;98365.00;5037469;28;20025;-80
2022/05/18 02:28:37;;;;;;;6.30;4.57;;;;;;;17.03;100.00;98370.72;5039418;28;20033;-82
2022/05/18 02:31:03;;;;;;;7.32;4.65;;;;;;;16.91;100.00;98367.78;5037712;28;20036;-80
2022/05/18 02:33:29;;;;;;;8.07;5.18;;;;;;;16.87;100.00;98360.47;5035701;28;20057;-77
2022/05/18 02:35:54;;;;;;;5.70;3.85;;;;;;;16.83;100.00;98374.13;5047359;28;20079;-76
2022/05/18 02:38:20;;;;;;;11.13;4.35;;;;;;;16.88;100.00;98370.41;5032542;28;20483;-76
2022/05/18 02:40:45;;;;;;;8.85;4.75;;;;;;;16.77;100.00;98369.91;5032202;28;20034;-76
2022/05/18 02:43:11;;;;;;;7.90;4.07;;;;;;;16.78;100.00;98371.53;5031687;28;20466;-76
2022/05/18 02:45:36;;;;;;;8.15;4.60;;;;;;;16.71;100.00;98381.44;5030795;28;20030;-75
2022/05/18 02:48:02;;;;;;;7.30;4.85;;;;;;;16.53;100.00;98373.13;5032126;28;20022;-75
2022/05/18 02:50:28;;;;;;;11.88;5.22;;;;;;;16.49;100.00;98369.38;5032335;28;20793;-75
2022/05/18 02:52:53;;;;;;;8.40;4.82;;;;;;;16.48;100.00;98372.44;5032175;28;20048;-76
2022/05/18 02:58:02;;;;;;;7.82;4.35;;;;;;;16.27;100.00;98380.56;5033187;28;20176;-75
2022/05/18 03:00:28;;;;;;;6.57;4.45;;;;;;;16.38;100.00;98384.63;5031818;28;20124;-75
2022/05/18 03:02:54;;;;;;;7.38;4.40;;;;;;;16.48;100.00;98395.34;5031119;28;20030;-76
2022/05/18 03:05:20;;;;;;;9.80;4.32;;;;;;;16.37;100.00;98390.47;5031825;28;20021;-76
2022/05/18 03:07:45;;;;;;;8.18;4.07;;;;;;;16.28;100.00;98392.41;5031871;28;20372;-77
2022/05/18 03:10:15;;;;;;;11.48;4.00;;;;;;;16.30;100.00;98409.47;5017898;28;20049;-75
2022/05/18 03:12:41;;;;;;;6.75;4.35;;;;;;;16.33;100.00;98417.91;5030715;28;20021;-76
2022/05/18 03:15:07;;;;;;;7.15;4.65;;;;;;;16.37;100.00;98421.66;5005244;28;20029;-77
2022/05/18 03:17:32;;;;;;;8.70;4.63;;;;;;;16.32;100.00;98419.03;5011921;28;20479;-76
2022/05/18 03:19:58;;;;;;;9.38;4.72;;;;;;;16.33;100.00;98422.63;5011379;28;20037;-76
2022/05/18 03:25:24;;;;;;;9.48;5.05;;;;;;;16.45;100.00;98447.66;4980974;28;20105;-76
2022/05/18 03:27:50;;;;;;;11.43;5.32;;;;;;;16.43;100.00;98438.88;5017821;28;20033;-75
2022/05/18 03:30:15;;;;;;;8.57;5.07;;;;;;;16.36;100.00;98444.06;5034144;28;20474;-77
2022/05/18 03:32:41;;;;;;;8.88;5.78;;;;;;;16.31;100.00;98444.22;5035939;28;20029;-76
2022/05/18 03:35:08;;;;;;;7.03;4.65;;;;;;;16.39;100.00;98468.28;5046573;28;20018;-75
2022/05/18 03:37:33;;;;;;;10.00;5.28;;;;;;;16.34;100.00;98465.66;5030594;28;20052;-75
2022/05/18 03:39:59;;;;;;;8.35;4.90;;;;;;;16.25;100.00;98468.41;5030601;28;20479;-76
2022/05/18 03:42:25;;;;;;;8.32;5.30;;;;;;;16.23;100.00;98467.06;5045748;28;20048;-75
2022/05/18 03:44:50;;;;;;;6.38;4.78;;;;;;;16.25;100.00;98460.13;5046103;28;20462;-77
2022/05/18 03:47:16;;;;;;;6.60;4.63;;;;;;;16.31;100.00;98482.88;5029909;28;20445;-76
2022/05/18 03:49:41;;;;;;;10.57;5.10;;;;;;;16.19;100.00;98485.44;5030899;28;20036;-75
2022/05/18 03:52:07;;;;;;;8.77;5.13;;;;;;;16.29;100.00;98487.91;5045998;28;20034;-75
2022/05/18 03:54:33;;;;;;;9.68;5.65;;;;;;;16.31;100.00;98491.16;5030907;28;20108;-77
2022/05/18 03:56:59;;;;;;;12.57;5.00;;;;;;;16.45;100.00;98489.09;5030533;28;20398;-75
2022/05/18 03:59:24;;;;;;;13.35;5.32;;;;;;;16.47;100.00;98498.69;5045920;28;20037;-75
2022/05/18 04:01:49;;;;;;;9.63;5.63;;;;;;;16.48;100.00;98488.44;5030936;28;20033;-77
2022/05/18 04:04:15;;;;;;;9.90;6.05;;;;;;;16.71;100.00;98497.47;5029576;28;20028;-75
2022/05/18 04:06:40;;;;;;;13.38;5.10;;;;;;;16.76;100.00;98500.09;5030504;28;20501;-76
2022/05/18 04:09:06;;;;;;;13.20;6.32;;;;;;;16.77;100.00;98499.75;5029787;28;20009;-74
2022/05/18 04:11:31;;;;;;;11.52;6.00;;;;;;;16.80;100.00;98495.53;5030640;28;20529;-74
2022/05/18 04:13:56;;;;;;;12.27;5.75;;;;;;;16.77;100.00;98512.75;5029966;28;20026;-75
2022/05/18 04:16:22;;;;;;;12.70;5.50;;;;;;;16.71;100.00;98519.56;5030588;28;20025;-75
2022/05/18 04:18:47;;;;;;;9.88;5.15;;;;;;;16.83;100.00;98526.09;5045811;28;20175;-76
2022/05/18 04:21:13;;;;;;;10.23;5.10;;;;;;;16.78;100.00;98530.97;5030247;28;20066;-74
2022/05/18 04:23:39;;;;;;;6.97;4.70;;;;;;;16.72;100.00;98541.38;5029991;28;20056;-75
2022/05/18 04:26:05;;;;;;;13.10;4.28;;;;;;;16.63;100.00;98535.00;5028696;28;20045;-76
2022/05/18 04:28:32;;;;;;;8.55;4.65;;;;;;;16.72;100.00;98554.38;5029187;28;20136;-75
2022/05/18 04:30:58;;;;;;;6.75;4.63;;;;;;;16.68;100.00;98537.63;5030213;28;20037;-75
2022/05/18 04:33:24;;;;;;;10.45;5.38;;;;;;;17.01;100.00;98558.16;5032597;28;20037;-82
2022/05/18 04:35:50;;;;;;;7.85;4.10;;;;;;;17.54;100.00;98554.31;5043265;28;20026;-79
2022/05/18 04:38:20;;;;;;;9.55;4.75;;;;;;;17.70;100.00;98563.75;5044272;28;20031;-80
2022/05/18 04:40:46;;;;;;;8.00;5.15;;;;;;;17.81;100.00;98567.84;5037664;28;20052;-78
2022/05/18 04:43:12;;;;;;;12.68;4.68;;;;;;;17.75;98.80;98560.84;5046914;28;20061;-75
2022/05/18 04:45:44;;;;;;;6.75;4.15;;;;;;;17.98;97.18;98576.09;5037170;28;20041;-77
2022/05/18 04:48:12;;;;;;;8.43;3.90;;;;;;;18.17;93.58;98573.78;5039650;28;20030;-80
2022/05/18 04:50:37;;;;;;;6.82;4.07;;;;;;;18.10;92.00;98578.22;5054070;28;20030;-82
2022/05/18 04:53:02;;;;;;;4.80;3.58;;;;;;;18.08;92.18;98580.47;5039767;28;20116;-79
2022/05/18 04:55:28;;;;;;;5.70;3.30;;;;;;;18.08;91.76;98575.78;5042812;28;20041;-81
2022/05/18 04:57:53;;;;;;;5.70;3.97;;;;;;;18.03;92.67;98589.78;5037355;28;20510;-78
2022/05/18 05:00:19;;;;;;;8.43;4.05;;;;;;;17.96;92.10;98591.41;5036265;28;21054;-78
2022/05/18 05:02:44;;;;;;;5.55;3.88;;;;;;;17.88;89.53;98598.63;5028970;28;20030;-75
2022/05/18 05:05:12;;;;;;;6.55;3.90;;;;;;;17.93;90.08;98598.44;5029288;28;20164;-77
2022/05/18 05:07:38;;;;;;;6.70;4.20;;;;;;;17.96;90.62;98602.50;5029575;28;20033;-75
2022/05/18 05:10:04;;;;;;;7.97;4.05;;;;;;;18.04;89.34;98607.22;5028920;28;20029;-75
2022/05/18 05:12:30;;;;;;;6.85;4.10;;;;;;;18.07;87.75;98615.66;5031762;28;20037;-80
2022/05/18 05:14:55;;;;;;;4.85;3.90;;;;;;;18.02;87.35;98626.91;5046137;28;20064;-74
2022/05/18 05:17:20;;;;;;;7.20;4.07;;;;;;;17.96;86.69;98627.41;5039111;28;20033;-80
2022/05/18 05:19:46;;;;;;;8.45;3.88;;;;;;;17.95;87.77;98632.13;5049390;28;20030;-82
2022/05/18 05:22:11;;;;;;;5.40;3.83;;;;;;;17.88;87.33;98637.38;5051007;28;20122;-82
2022/05/18 05:24:36;;;;;;;6.20;4.05;;;;;;;17.83;86.93;98634.75;5051347;28;20540;-81
2022/05/18 05:27:02;;;;;;;7.57;3.95;;;;;;;17.91;86.70;98635.91;5048805;28;20110;-87
2022/05/18 05:29:27;;;;;;;5.10;3.72;;;;;;;18.05;83.66;98656.72;5068992;28;20017;-83
2022/05/18 05:31:53;;;;;;;5.38;3.50;;;;;;;17.99;83.05;98659.97;5046744;28;20040;-84
2022/05/18 05:34:19;;;;;;;7.63;3.65;;;;;;;17.98;80.75;98661.94;5054318;28;20041;-81
2022/05/18 05:36:44;;;;;;;6.43;3.75;;;;;;;17.98;79.70;98661.94;5069631;28;20086;-86
2022/05/18 05:39:10;;;;;;;8.02;3.67;;;;;;;17.97;78.97;98660.31;5054820;28;20025;-84
2022/05/18 05:41:35;;;;;;;7.45;3.78;;;;;;;17.96;80.09;98667.00;5053788;28;20030;-86
2022/05/18 05:44:01;;;;;;;5.20;3.30;;;;;;;17.99;79.83;98671.88;5056818;28;20029;-85
2022/05/18 05:46:27;;;;;;;8.25;4.13;;;;;;;17.98;77.18;98681.31;5039932;28;20044;-85
2022/05/18 05:48:54;;;;;;;7.18;3.65;;;;;;;17.79;74.87;98683.63;5053861;28;20021;-85
2022/05/18 05:51:19;;;;;;;5.93;3.30;;;;;;;17.76;74.02;98691.75;5071184;28;20013;-83
2022/05/18 05:53:46;;;;;;;6.05;4.03;;;;;;;17.81;73.64;98686.03;5055395;28;20016;-84
2022/05/18 05:56:13;;;;;;;5.28;3.58;;;;;;;17.81;73.67;98677.72;5053167;28;20052;-84
2022/05/18 05:58:40;;;;;;;7.43;3.60;;;;;;;17.90;73.94;98689.63;5068013;28;20021;-84
2022/05/18 06:01:08;;;;;;;9.43;3.63;;;;;;;17.91;74.99;98681.00;5034425;28;20029;-87
2022/05/18 06:03:35;;;;;;;5.55;3.72;;;;;;;17.96;74.34;98694.69;5035875;28;20037;-86
2022/05/18 06:06:02;;;;;;;7.40;3.47;;;;;;;18.06;74.28;98688.81;5067867;28;20032;-84
2022/05/18 06:08:28;;;;;;;5.22;3.38;;;;;;;17.98;69.91;98694.38;5067933;28;20025;-86
2022/05/18 06:10:54;;;;;;;5.13;2.92;;;;;;;17.97;67.31;98706.56;5036093;28;20036;-84
2022/05/18 06:13:19;;;;;;;7.93;3.67;;;;;;;17.86;66.39;98703.28;5067270;28;20105;-85
2022/05/18 06:15:45;;;;;;;6.18;3.80;;;;;;;18.07;64.32;98695.97;5050566;28;20052;-85
2022/05/18 06:18:10;;;;;;;5.38;3.42;;;;;;;18.28;63.58;98711.94;5050724;28;20026;-86
2022/05/18 06:20:36;;;;;;;3.63;2.63;;;;;;;18.38;62.09;98714.38;5034167;28;20010;-83
2022/05/18 06:23:07;;;;;;;3.70;2.67;;;;;;;18.42;60.23;98707.06;5034309;28;20072;-85
2022/05/18 06:25:34;;;;;;;4.93;3.00;;;;;;;18.58;58.95;98722.03;5065916;28;20053;-81
2022/05/18 06:27:59;;;;;;;3.95;2.83;;;;;;;18.56;57.94;98707.69;5050563;28;20026;-85
2022/05/18 06:30:25;;;;;;;4.82;2.90;;;;;;;18.60;57.19;98715.03;5032758;28;20109;-85
2022/05/18 06:32:50;;;;;;;5.30;3.28;;;;;;;18.57;56.66;98723.19;5033408;28;20025;-82
2022/05/18 06:35:15;;;;;;;7.40;2.90;;;;;;;18.52;57.93;98718.63;5034957;28;20052;-84
2022/05/18 06:37:41;;;;;;;5.97;2.70;;;;;;;18.46;56.23;98732.94;5033283;28;20542;-86
2022/05/18 06:40:08;;;;;;;4.47;2.72;;;;;;;18.39;57.83;98724.31;5052004;28;20033;-85
2022/05/18 06:42:34;;;;;;;4.40;2.60;;;;;;;18.39;56.90;98708.50;5069454;28;20041;-84
2022/05/18 06:45:00;;;;;;;3.00;2.35;;;;;;;18.39;55.26;98727.88;5052885;28;20085;-84
2022/05/18 06:47:26;;;;;;;8.32;2.80;;;;;;;18.38;55.73;98723.50;5052390;28;20022;-85
2022/05/18 06:49:53;;;;;;;6.07;2.70;;;;;;;18.43;55.43;98719.75;5053694;28;20033;-86
2022/05/18 06:52:19;;;;;;;4.68;2.55;;;;;;;18.52;54.85;98731.66;5054754;28;20041;-84
2022/05/18 06:54:45;;;;;;;8.80;2.70;;;;;;;18.71;55.31;98730.16;5052616;28;20089;-84
2022/05/18 06:57:11;;;;;;;3.80;2.58;;;;;;;18.54;54.25;98732.94;5053850;28;20046;-85
2022/05/18 06:59:36;;;;;;;5.20;2.65;;;;;;;18.43;54.82;98725.28;5053767;28;20087;-86
2022/05/18 07:02:04;;;;;;;4.20;2.22;;;;;;;18.48;55.60;98728.69;5054476;28;20056;-85
2022/05/18 07:04:29;;;;;;;8.60;2.95;;;;;;;18.63;55.21;98722.69;5053546;28;20033;-86
2022/05/18 07:06:55;;;;;;;5.72;3.28;;;;;;;18.70;55.90;98731.31;5055922;28;20025;-84
2022/05/18 07:09:22;;;;;;;5.30;2.60;;;;;;;18.73;53.72;98735.41;5053550;28;20025;-88
2022/05/18 07:11:52;;;;;;;6.63;3.25;;;;;;;18.79;55.70;98741.56;5053698;28;20038;-85
2022/05/18 07:14:19;;;;;;;6.80;2.95;;;;;;;18.86;55.47;98737.13;5055125;28;20103;-85
2022/05/18 07:16:45;;;;;;;7.40;3.58;;;;;;;19.04;56.14;98735.97;5072518;28;20072;-86
2022/05/18 07:19:12;;;;;;;7.75;3.50;;;;;;;19.08;53.92;98736.91;5055642;28;20048;-85
2022/05/18 07:21:38;;;;;;;5.10;2.60;;;;;;;19.21;55.24;98738.66;5055062;28;20035;-86
2022/05/18 07:24:05;;;;;;;5.10;2.85;;;;;;;19.37;53.61;98740.88;5054479;28;20065;-84
2022/05/18 07:26:31;;;;;;;6.03;2.53;;;;;;;19.49;52.55;98741.81;5055923;28;20049;-85
2022/05/18 07:28:57;;;;;;;6.78;3.10;;;;;;;19.55;52.38;98736.88;5055370;28;20036;-86
2022/05/18 07:31:24;;;;;;;4.63;2.40;;;;;;;19.62;52.00;98739.97;5054501;28;20025;-85
2022/05/18 07:33:49;;;;;;;7.63;3.25;;;;;;;19.46;51.33;98739.72;5070003;28;20033;-83
2022/05/18 07:36:17;;;;;;;4.70;2.95;;;;;;;19.61;52.18;98746.66;5054280;28;20045;-86
2022/05/18 07:38:42;;;;;;;4.60;3.28;;;;;;;19.60;51.77;98743.09;5054134;28;20081;-84
2022/05/18 07:41:10;;;;;;;6.78;3.35;;;;;;;19.67;51.53;98731.44;5070985;28;20045;-83
2022/05/18 07:43:36;;;;;;;5.20;3.30;;;;;;;19.85;53.83;98734.94;5054788;28;20013;-85
2022/05/18 07:46:02;;;;;;;8.13;3.25;;;;;;;20.05;52.43;98737.72;5053730;28;20025;-83
2022/05/18 07:48:28;;;;;;;4.47;2.95;;;;;;;20.08;52.00;98739.03;5053108;28;20105;-86
2022/05/18 07:50:54;;;;;;;3.78;2.58;;;;;;;20.17;50.61;98735.00;5068327;28;20089;-82
2022/05/18 07:53:20;;;;;;;4.80;3.00;;;;;;;20.03;51.02;98737.25;5046818;28;20051;-85
2022/05/18 07:55:47;;;;;;;4.78;2.78;;;;;;;20.15;50.67;98737.31;5049167;28;20037;-86
2022/05/18 07:58:14;;;;;;;4.70;2.75;;;;;;;20.46;50.81;98736.91;5051631;28;20087;-85
2022/05/18 08:00:40;;;;;;;8.52;2.88;;;;;;;20.54;49.73;98738.00;5053657;28;20088;-84
2022/05/18 08:03:08;;;;;;;9.35;2.92;;;;;;;20.53;48.99;98739.97;5051728;28;20026;-85
2022/05/18 08:05:33;;;;;;;3.85;2.90;;;;;;;20.50;49.18;98737.88;5052597;28;20052;-86
2022/05/18 08:08:09;;;;;;;11.90;2.95;;;;;;;20.64;48.98;98743.94;5053096;28;20026;-87
2022/05/18 08:16:03;;;;;;;6.57;2.55;;;;;;;20.39;47.64;98742.22;5053096;28;20064;-85
2022/05/18 08:18:33;;;;;;;4.18;2.50;;;;;;;20.46;46.49;98748.03;5053886;28;20021;-84
2022/05/18 08:20:58;;;;;;;4.97;2.45;;;;;;;20.52;46.15;98740.28;5054388;28;20008;-85
2022/05/18 08:23:25;;;;;;;4.82;2.67;;;;;;;20.68;45.49;98741.28;5054072;28;20013;-86
2022/05/18 08:25:54;;;;;;;3.65;2.40;;;;;;;21.11;45.40;98740.88;5053242;28;20077;-84
2022/05/18 08:28:20;;;;;;;3.33;2.20;;;;;;;21.92;44.08;98751.94;5052841;28;20021;-83
2022/05/18 08:30:46;;;;;;;7.20;2.85;;;;;;;22.26;43.48;98754.19;5052966;28;20204;-82
2022/05/18 08:33:12;;;;;;;4.72;2.80;;;;;;;22.43;42.09;98750.28;5051945;28;20026;-82
2022/05/18 08:35:40;;;;;;;8.82;3.65;;;;;;;22.52;42.67;98767.72;5048464;28;20444;-78
2022/05/18 08:38:06;;;;;;;4.53;2.40;;;;;;;22.42;42.00;98763.44;5031867;28;20026;-80
2022/05/18 08:40:40;;;;;;;5.53;3.08;;;;;;;21.50;42.87;98762.47;5032197;28;20028;-76
2022/05/18 08:43:09;;;;;;;3.55;2.50;;;;;;;21.73;43.21;98757.25;5030666;28;20029;-77
2022/05/18 08:45:38;;;;;;;7.88;2.85;;;;;;;22.06;43.22;98741.22;5029058;28;20446;-75
2022/05/18 08:48:45;;;;;;;3.38;2.42;;;;;;;21.67;43.63;98748.34;5028882;28;20022;-76
2022/05/18 08:51:48;;;;;;;4.10;2.45;;;;;;;21.81;43.33;98753.53;5026808;28;20056;-76
2022/05/18 08:54:53;;;;;;;5.65;3.00;;;;;;;22.01;42.33;98757.38;5031627;28;20108;-76
2022/05/18 08:57:23;;;;;;;4.80;2.60;;;;;;;22.30;42.33;98746.72;5033843;28;20041;-80
2022/05/18 08:59:54;;;;;;;6.68;2.80;;;;;;;22.30;42.34;98743.94;5034610;28;20064;-80
2022/05/18 09:02:25;;;;;;;3.63;2.28;;;;;;;22.35;42.42;98745.69;5032265;28;20037;-76
2022/05/18 09:05:15;;;;;;;5.18;3.30;;;;;;;22.39;42.26;98747.44;5032417;28;20060;-76
2022/05/18 09:07:47;;;;;;;4.28;2.72;;;;;;;22.33;42.23;98751.59;5030535;28;20044;-75
2022/05/18 09:10:27;;;;;;;4.07;2.47;;;;;;;22.38;42.11;98745.78;5032111;28;20043;-75
2022/05/18 09:12:52;;;;;;;4.47;2.55;;;;;;;22.21;42.54;98742.50;5032381;28;20037;-76
2022/05/18 09:15:35;;;;;;;4.38;2.65;;;;;;;22.67;41.18;98744.69;5035369;28;20455;-78
2022/05/18 09:18:17;;;;;;;9.27;3.15;;;;;;;22.90;41.62;98731.75;5029427;28;20452;-80
2022/05/18 09:20:49;;;;;;;3.78;2.83;;;;;;;22.59;41.89;98753.16;5038257;28;20096;-75
2022/05/18 09:23:37;;;;;;;5.55;2.90;;;;;;;22.31;43.26;98740.00;5035663;28;20068;-79
2022/05/18 09:26:12;;;;;;;5.78;2.78;;;;;;;22.92;41.96;98743.38;5049396;28;20029;-77
2022/05/18 09:28:58;;;;;;;3.77;2.27;;;;;;;23.23;41.14;98750.19;5035181;28;20030;-81
2022/05/18 09:31:33;;;;;;;6.05;3.05;;;;;;;22.37;42.57;98749.75;5045563;28;20033;-80
2022/05/18 09:34:16;;;;;;;6.40;2.90;;;;;;;22.31;42.63;98751.16;5049575;28;20482;-77
2022/05/18 09:37:09;;;;;;;6.38;2.60;;;;;;;22.45;42.38;98745.19;5033120;28;20357;-74
2022/05/18 09:39:40;;;;;;;6.80;2.80;;;;;;;22.63;42.12;98740.13;5044042;28;20479;-80
2022/05/18 09:42:11;;;;;;;3.55;2.67;;;;;;;22.61;41.61;98740.50;5031910;28;20020;-76
2022/05/18 09:44:42;;;;;;;3.63;2.67;;;;;;;22.59;41.27;98728.84;5039213;28;20029;-76
2022/05/18 09:47:13;;;;;;;5.85;2.90;;;;;;;22.13;42.30;98709.97;5037313;28;20052;-78
2022/05/18 09:49:43;;;;;;;6.32;2.67;;;;;;;22.43;43.02;98733.56;5029359;28;20030;-78
2022/05/18 09:52:09;;;;;;;3.42;2.40;;;;;;;22.22;42.33;98742.13;5035172;28;20029;-76
2022/05/18 09:54:36;;;;;;;4.35;2.47;;;;;;;22.37;42.36;98741.38;5041021;28;20025;-81
2022/05/18 09:57:06;;;;;;;4.28;2.63;;;;;;;22.67;41.42;98729.91;5047301;28;20096;-80
2022/05/18 09:59:38;;;;;;;4.60;3.15;;;;;;;22.53;42.98;98737.84;5058806;28;20089;-80
2022/05/18 10:07:49;;;;;;;4.60;2.58;;;;;;;22.26;42.43;98717.13;5040732;28;20048;-80
2022/05/18 10:10:23;;;;;;;4.82;3.75;;;;;;;22.38;42.07;98722.66;5040368;28;20048;-82
2022/05/18 10:13:03;;;;;;;5.15;2.80;;;;;;;22.34;42.31;98727.31;5046452;28;20033;-79
2022/05/18 10:16:00;;;;;;;4.53;2.60;;;;;;;22.42;42.68;98716.03;5037629;28;20029;-77
2022/05/18 10:18:42;;;;;;;6.90;3.03;;;;;;;21.87;43.10;98719.53;5030275;28;20053;-79
2022/05/18 10:21:13;;;;;;;7.03;3.22;;;;;;;21.74;44.26;98737.41;5031513;28;20034;-81
2022/05/18 10:23:46;;;;;;;4.82;2.70;;;;;;;22.05;43.47;98708.97;5029491;28;20029;-77
2022/05/18 10:26:31;;;;;;;3.65;2.70;;;;;;;22.53;42.23;98713.53;5031763;28;20087;-77
2022/05/18 10:29:27;;;;;;;5.43;2.78;;;;;;;22.18;43.21;98712.50;5032112;28;20043;-78
2022/05/18 10:32:04;;;;;;;9.98;3.20;;;;;;;22.09;42.74;98712.66;5032210;28;20127;-78
2022/05/18 10:34:33;;;;;;;4.85;2.83;;;;;;;22.29;42.87;98708.88;5032908;28;20505;-79
2022/05/18 10:37:05;;;;;;;4.55;2.70;;;;;;;22.91;41.01;98704.66;5030993;28;20036;-77
2022/05/18 10:39:44;;;;;;;3.75;2.65;;;;;;;22.60;41.93;98702.59;5032340;28;20079;-78
2022/05/18 10:42:19;;;;;;;6.32;2.90;;;;;;;22.77;40.91;98705.06;5030453;28;20036;-77
2022/05/18 10:44:45;;;;;;;4.22;2.55;;;;;;;22.28;41.96;98707.25;5032801;28;20021;-78
2022/05/18 10:47:26;;;;;;;4.18;2.47;;;;;;;21.98;42.30;98713.50;5033576;28;20025;-79
2022/05/18 10:50:08;;;;;;;6.30;2.75;;;;;;;21.87;43.64;98707.56;5031230;28;20040;-76
2022/05/18 10:52:34;;;;;;;4.78;3.38;;;;;;;22.14;43.05;98712.41;5031261;28;20116;-77
2022/05/18 10:55:09;;;;;;;10.45;3.35;;;;;;;22.11;42.69;98701.16;5033317;28;20030;-78
2022/05/18 10:57:40;;;;;;;5.10;2.78;;;;;;;22.09;42.92;98704.28;5038364;28;20049;-77
2022/05/18 11:00:12;;;;;;;6.15;3.00;;;;;;;21.90;42.67;98684.59;5038377;28;20030;-78
2022/05/18 11:02:44;;;;;;;3.45;2.58;;;;;;;22.06;43.21;98713.34;5043038;28;20116;-75
2022/05/18 11:05:16;;;;;;;3.45;2.67;;;;;;;22.01;43.16;98702.47;5033039;28;20028;-78
2022/05/18 11:07:43;;;;;;;7.50;2.70;;;;;;;22.13;43.22;98704.41;5030454;28;20389;-78
2022/05/18 11:10:10;;;;;;;5.35;3.00;;;;;;;22.27;42.45;98688.09;5032021;28;20529;-80
2022/05/18 11:13:01;;;;;;;3.83;2.72;;;;;;;22.04;43.27;98704.53;5030013;28;20490;-75
2022/05/18 11:15:55;;;;;;;3.45;2.40;;;;;;;21.98;42.84;98702.34;5033222;28;20120;-76
2022/05/18 11:18:36;;;;;;;3.55;2.33;;;;;;;22.10;42.66;98705.94;5031083;28;20553;-78
2022/05/18 11:21:07;;;;;;;4.22;2.58;;;;;;;22.20;42.59;98701.84;5043383;28;20033;-80
2022/05/18 11:24:04;;;;;;;4.97;2.75;;;;;;;22.20;42.76;98705.44;5046278;28;20053;-78
2022/05/18 11:26:45;;;;;;;4.90;2.50;;;;;;;22.35;41.81;98703.88;5031177;28;20040;-75
2022/05/18 11:29:32;;;;;;;6.13;2.90;;;;;;;22.06;42.24;98695.81;5032284;28;20034;-78
2022/05/18 11:32:15;;;;;;;4.63;2.55;;;;;;;22.43;42.68;98681.41;5028515;28;20486;-79
2022/05/18 11:34:49;;;;;;;4.80;2.95;;;;;;;22.26;41.80;98686.47;5030579;28;20044;-76
2022/05/18 11:37:46;;;;;;;4.05;2.90;;;;;;;22.38;41.65;98694.78;5032567;28;20474;-77
2022/05/18 11:40:28;;;;;;;7.75;2.90;;;;;;;22.31;41.90;98670.31;5031102;28;20038;-81
2022/05/18 11:43:33;;;;;;;6.75;2.65;;;;;;;22.70;41.10;98678.97;5031291;28;20030;-80
2022/05/18 11:45:58;;;;;;;5.18;2.78;;;;;;;22.75;41.21;98682.31;5028957;28;20164;-78
2022/05/18 11:48:35;;;;;;;3.67;2.25;;;;;;;22.79;41.17;98682.41;5046261;28;20128;-77
2022/05/18 11:51:14;;;;;;;5.22;2.88;;;;;;;22.68;41.04;98695.28;5033607;28;20041;-81
2022/05/18 11:53:48;;;;;;;5.25;2.80;;;;;;;22.82;41.37;98681.69;5056789;28;20056;-81
2022/05/18 11:56:35;;;;;;;3.63;2.63;;;;;;;22.93;40.80;98672.44;5041700;28;20049;-77
2022/05/18 12:02:14;;;;;;;5.03;2.83;;;;;;;22.63;40.80;98684.34;5031880;28;20029;-78